Time;durP1;ratioP1;P1;durP2;ratioP2;P2;SDS_P1;SDS_P2;PMS_P1;PMS_P2;Temp;Humidity;BMP_temperature;BMP_pressure;BME280_temperature;BME280_humidity;BME280_pressure;Samples;Min_cycle;Max_cycle;Signal;HPM_P1;HPM_P2
2023/06/27 00:01:39;;;;;;;6.20;2.58;;;20.90;58.30;;;;;;5056098;28;20032;-64
2023/06/27 00:04:06;;;;;;;6.40;2.50;;;20.90;58.40;;;;;;5056427;28;20032;-64
2023/06/27 00:06:32;;;;;;;6.22;2.63;;;20.90;58.50;;;;;;5055198;28;20090;-64
2023/06/27 00:08:58;;;;;;;6.90;2.85;;;20.80;58.60;;;;;;5072668;28;20063;-64
2023/06/27 00:11:24;;;;;;;7.03;2.95;;;20.80;58.70;;;;;;5053829;28;20105;-64
2023/06/27 00:13:50;;;;;;;6.30;2.65;;;20.80;58.80;;;;;;5072235;28;20453;-64
2023/06/27 00:16:17;;;;;;;7.03;2.40;;;20.80;58.80;;;;;;5039065;28;20031;-64
2023/06/27 00:18:47;;;;;;;7.45;2.63;;;20.80;58.90;;;;;;5051485;28;20413;-64
2023/06/27 00:21:15;;;;;;;5.88;2.58;;;20.80;59.00;;;;;;5072505;28;20028;-64
2023/06/27 00:23:43;;;;;;;6.55;2.70;;;20.80;59.00;;;;;;5056174;28;20090;-64
2023/06/27 00:26:09;;;;;;;9.68;2.75;;;20.80;59.00;;;;;;5052291;28;20029;-64
2023/06/27 00:28:35;;;;;;;7.63;3.15;;;20.80;59.10;;;;;;5067812;28;20353;-64
2023/06/27 00:31:02;;;;;;;7.22;2.80;;;20.80;59.10;;;;;;5052536;28;20043;-64
2023/06/27 00:33:28;;;;;;;6.53;2.67;;;20.80;59.10;;;;;;5072319;28;20364;-64
2023/06/27 00:35:54;;;;;;;6.90;2.97;;;20.80;59.10;;;;;;5036693;28;20155;-64
2023/06/27 00:38:19;;;;;;;8.77;3.15;;;20.80;59.10;;;;;;5073741;28;20103;-64
2023/06/27 00:40:45;;;;;;;6.38;2.70;;;20.80;59.10;;;;;;5056180;28;20051;-64
2023/06/27 00:43:11;;;;;;;9.60;2.72;;;20.80;59.10;;;;;;5037924;28;20035;-64
2023/06/27 00:45:36;;;;;;;8.35;2.88;;;20.80;59.20;;;;;;5053594;28;20029;-64
2023/06/27 00:48:03;;;;;;;5.78;2.53;;;20.80;59.20;;;;;;5055009;28;20028;-64
2023/06/27 00:50:31;;;;;;;8.15;3.08;;;20.90;59.20;;;;;;5073929;28;20040;-64
2023/06/27 00:52:59;;;;;;;8.35;2.65;;;20.90;59.20;;;;;;5054386;28;20042;-64
2023/06/27 00:55:25;;;;;;;6.30;2.80;;;20.90;59.30;;;;;;5053661;28;20044;-64
2023/06/27 00:57:51;;;;;;;7.80;3.10;;;20.90;59.30;;;;;;5055160;28;20056;-64
2023/06/27 01:00:18;;;;;;;6.25;2.88;;;21.00;59.40;;;;;;5073612;28;20114;-64
2023/06/27 01:02:47;;;;;;;8.10;2.95;;;20.90;59.50;;;;;;5054657;28;20458;-64
2023/06/27 01:05:15;;;;;;;7.80;2.78;;;20.90;59.50;;;;;;5053396;28;20029;-64
2023/06/27 01:07:52;;;;;;;6.85;2.90;;;20.90;59.50;;;;;;5070093;28;20024;-64
2023/06/27 01:10:36;;;;;;;6.95;2.88;;;21.00;59.70;;;;;;5053151;28;20047;-64
2023/06/27 01:13:27;;;;;;;6.80;2.83;;;21.00;59.70;;;;;;5054383;28;20125;-64
2023/06/27 01:15:53;;;;;;;8.35;3.20;;;21.00;59.70;;;;;;5062056;28;20074;-64
2023/06/27 01:18:21;;;;;;;7.22;2.83;;;21.00;59.70;;;;;;5038298;28;20028;-64
2023/06/27 01:20:49;;;;;;;6.38;2.90;;;21.00;60.50;;;;;;5062756;28;20170;-64
2023/06/27 01:23:24;;;;;;;8.10;3.35;;;21.00;59.90;;;;;;5071749;28;20041;-64
2023/06/27 01:26:01;;;;;;;6.97;2.72;;;20.90;60.00;;;;;;5070205;28;20116;-64
2023/06/27 01:28:27;;;;;;;7.10;2.83;;;20.90;60.00;;;;;;5054322;28;20021;-64
2023/06/27 01:30:54;;;;;;;5.78;2.72;;;20.90;60.00;;;;;;5038007;28;20078;-64
2023/06/27 01:33:48;;;;;;;6.90;3.28;;;20.90;59.90;;;;;;5054949;28;20040;-64
2023/06/27 01:36:38;;;;;;;7.05;3.00;;;20.90;59.80;;;;;;5063533;28;20453;-64
2023/06/27 01:39:12;;;;;;;8.43;3.15;;;20.90;59.90;;;;;;5054718;28;20025;-64
2023/06/27 01:41:40;;;;;;;7.20;2.63;;;20.90;59.90;;;;;;5055504;28;20030;-64
2023/06/27 01:44:10;;;;;;;8.07;3.13;;;20.90;59.80;;;;;;5054960;28;20032;-64
2023/06/27 01:46:36;;;;;;;7.28;2.70;;;20.90;59.80;;;;;;5057025;28;20028;-64
2023/06/27 01:49:03;;;;;;;7.40;2.97;;;20.90;60.00;;;;;;5075100;28;20020;-64
2023/06/27 01:51:29;;;;;;;6.15;3.05;;;20.90;60.10;;;;;;5059058;28;20322;-64
2023/06/27 01:53:55;;;;;;;10.30;3.33;;;20.80;60.20;;;;;;5075547;28;20102;-64
2023/06/27 01:56:21;;;;;;;6.90;3.13;;;20.80;60.30;;;;;;5041752;28;20449;-64
2023/06/27 01:58:47;;;;;;;7.10;2.97;;;20.80;60.40;;;;;;5040765;28;20037;-64
2023/06/27 02:01:14;;;;;;;8.35;3.20;;;20.80;60.60;;;;;;5057646;28;20028;-64
2023/06/27 02:03:40;;;;;;;8.57;2.95;;;20.80;60.70;;;;;;5075507;28;20104;-64
2023/06/27 02:06:05;;;;;;;9.27;2.78;;;20.70;60.90;;;;;;5075716;28;20456;-64
2023/06/27 02:08:31;;;;;;;15.45;3.35;;;20.80;61.00;;;;;;5043744;28;20111;-64
2023/06/27 02:10:57;;;;;;;8.95;3.50;;;20.70;61.00;;;;;;5076340;28;20351;-64
2023/06/27 02:13:23;;;;;;;8.52;3.50;;;20.70;61.10;;;;;;5057985;28;20021;-64
2023/06/27 02:15:48;;;;;;;7.63;3.45;;;20.70;61.10;;;;;;5057600;28;20031;-64
2023/06/27 02:18:14;;;;;;;9.57;3.17;;;20.70;61.10;;;;;;5073879;28;20438;-64
2023/06/27 02:20:40;;;;;;;7.78;3.42;;;20.70;61.20;;;;;;5058318;28;20395;-64
2023/06/27 02:23:05;;;;;;;10.70;3.28;;;20.70;61.10;;;;;;5057951;28;20029;-64
2023/06/27 02:25:31;;;;;;;9.27;3.55;;;20.70;61.20;;;;;;5075905;28;20441;-64
2023/06/27 02:27:57;;;;;;;9.00;3.25;;;20.60;61.10;;;;;;5073924;28;20036;-64
2023/06/27 02:30:23;;;;;;;10.02;3.35;;;20.60;61.00;;;;;;5074228;28;20029;-64
2023/06/27 02:32:48;;;;;;;8.40;2.92;;;20.70;61.10;;;;;;5074988;28;20139;-64
2023/06/27 02:35:16;;;;;;;8.57;3.30;;;20.70;61.00;;;;;;5056959;28;20461;-64
2023/06/27 02:37:42;;;;;;;8.77;3.40;;;20.60;60.90;;;;;;5056949;28;20024;-64
2023/06/27 02:40:09;;;;;;;7.68;3.08;;;20.60;61.10;;;;;;5074812;28;20094;-64
2023/06/27 02:42:34;;;;;;;8.02;3.45;;;20.60;61.20;;;;;;5075884;28;20029;-64
2023/06/27 02:45:00;;;;;;;11.07;3.83;;;20.60;61.20;;;;;;5057144;28;20025;-64
2023/06/27 02:47:26;;;;;;;7.55;3.70;;;20.50;61.20;;;;;;5057194;28;20043;-64
2023/06/27 02:49:52;;;;;;;8.85;3.58;;;20.50;61.30;;;;;;5073860;28;20028;-64
2023/06/27 02:52:17;;;;;;;10.40;3.13;;;20.50;61.40;;;;;;5075358;28;20056;-64
2023/06/27 02:54:44;;;;;;;7.18;3.15;;;20.50;61.40;;;;;;5055939;28;20020;-64
2023/06/27 02:57:10;;;;;;;10.18;4.22;;;20.50;61.50;;;;;;5075063;28;20025;-64
2023/06/27 02:59:38;;;;;;;10.35;3.83;;;20.40;61.60;;;;;;5055893;28;20028;-64
2023/06/27 03:02:05;;;;;;;8.52;3.17;;;20.40;61.70;;;;;;5057783;28;20094;-64
2023/06/27 03:04:30;;;;;;;7.93;3.58;;;20.40;61.80;;;;;;5056428;28;20389;-64
2023/06/27 03:06:56;;;;;;;12.43;4.53;;;20.40;62.00;;;;;;5057469;28;20037;-64
2023/06/27 03:09:22;;;;;;;8.85;3.47;;;20.30;62.00;;;;;;5038670;28;20399;-64
2023/06/27 03:11:48;;;;;;;10.82;4.18;;;20.30;62.20;;;;;;5039925;28;20036;-64
2023/06/27 03:14:19;;;;;;;8.50;3.42;;;20.20;62.20;;;;;;5056319;28;20020;-64
2023/06/27 03:16:48;;;;;;;8.63;3.92;;;20.30;62.40;;;;;;5040565;28;20468;-64
2023/06/27 03:19:14;;;;;;;9.80;3.63;;;20.20;62.40;;;;;;5055906;28;20021;-64
2023/06/27 03:21:41;;;;;;;7.85;3.42;;;20.20;62.50;;;;;;5056662;28;20070;-64
2023/06/27 03:24:07;;;;;;;9.32;3.50;;;20.20;62.60;;;;;;5055803;28;20052;-64
2023/06/27 03:26:34;;;;;;;8.98;3.88;;;20.20;62.80;;;;;;5057151;28;20407;-64
2023/06/27 03:29:01;;;;;;;7.43;3.38;;;20.10;62.90;;;;;;5055894;28;20029;-64
2023/06/27 03:31:27;;;;;;;9.05;3.30;;;20.10;63.00;;;;;;5039927;28;20024;-64
2023/06/27 03:33:54;;;;;;;7.38;3.20;;;20.10;63.00;;;;;;5055821;28;20020;-64
2023/06/27 03:36:20;;;;;;;8.52;3.60;;;20.10;63.10;;;;;;5054290;28;20031;-64
2023/06/27 03:38:48;;;;;;;8.77;3.33;;;20.10;63.10;;;;;;5051368;28;20029;-64
2023/06/27 03:41:16;;;;;;;10.48;3.70;;;20.10;63.20;;;;;;5052553;28;20025;-64
2023/06/27 03:43:41;;;;;;;8.77;3.50;;;20.10;63.30;;;;;;5038639;28;20024;-64
2023/06/27 03:46:12;;;;;;;8.07;3.50;;;20.10;63.40;;;;;;5052765;28;20013;-64
2023/06/27 03:48:40;;;;;;;10.13;4.47;;;20.10;63.50;;;;;;5074309;28;20031;-64
2023/06/27 03:51:05;;;;;;;7.80;3.58;;;20.10;63.50;;;;;;5073686;28;20021;-63
2023/06/27 03:53:31;;;;;;;7.82;3.50;;;20.10;63.60;;;;;;5054441;28;20394;-64
2023/06/27 03:56:00;;;;;;;7.60;3.65;;;20.10;63.70;;;;;;5053116;28;20044;-64
2023/06/27 03:58:26;;;;;;;8.68;3.47;;;20.10;63.80;;;;;;5036968;28;20066;-64
2023/06/27 04:00:55;;;;;;;9.80;3.80;;;20.10;63.90;;;;;;5055696;28;20016;-64
2023/06/27 04:03:21;;;;;;;14.38;3.60;;;20.10;63.90;;;;;;5071296;28;20036;-64
2023/06/27 04:05:48;;;;;;;8.10;3.60;;;20.10;64.00;;;;;;5039517;28;20139;-64
2023/06/27 04:08:14;;;;;;;8.23;3.72;;;20.10;64.10;;;;;;5073483;28;20052;-64
2023/06/27 04:10:42;;;;;;;9.07;3.90;;;20.20;64.10;;;;;;5038848;28;20354;-64
2023/06/27 04:13:11;;;;;;;8.88;3.88;;;20.20;64.10;;;;;;5055182;28;20107;-64
2023/06/27 04:15:39;;;;;;;10.05;3.80;;;20.20;64.10;;;;;;5037680;28;20024;-64
2023/06/27 04:18:07;;;;;;;7.63;3.70;;;20.30;64.10;;;;;;5056609;28;20086;-64
2023/06/27 04:20:33;;;;;;;8.63;4.00;;;20.30;64.10;;;;;;5039028;28;20020;-63
2023/06/27 04:22:59;;;;;;;10.55;3.92;;;20.30;64.00;;;;;;5054857;28;20461;-63
2023/06/27 04:25:32;;;;;;;9.40;3.90;;;20.30;64.00;;;;;;5072160;28;20047;-63
2023/06/27 04:27:59;;;;;;;9.05;3.67;;;20.40;64.00;;;;;;5055445;28;20040;-63
2023/06/27 04:30:25;;;;;;;9.48;3.53;;;20.30;63.90;;;;;;5052389;28;20024;-63
2023/06/27 04:32:51;;;;;;;8.15;3.53;;;20.40;64.10;;;;;;5070550;28;20464;-63
2023/06/27 04:35:18;;;;;;;11.10;3.58;;;20.30;64.10;;;;;;5073086;28;20028;-63
2023/06/27 04:37:45;;;;;;;10.40;4.07;;;20.30;64.10;;;;;;5055375;28;20120;-63
2023/06/27 04:40:11;;;;;;;8.18;4.03;;;20.40;64.10;;;;;;5056071;28;20464;-63
2023/06/27 04:42:37;;;;;;;12.48;4.00;;;20.40;64.00;;;;;;5078762;28;20119;-63
2023/06/27 04:45:04;;;;;;;9.15;3.50;;;20.40;64.00;;;;;;5070520;28;20024;-63
2023/06/27 04:47:32;;;;;;;9.98;3.72;;;20.40;63.90;;;;;;5067904;28;20087;-65
2023/06/27 04:49:58;;;;;;;9.63;3.92;;;20.40;63.90;;;;;;5063963;28;20039;-64
2023/06/27 04:52:24;;;;;;;10.30;3.47;;;20.50;64.00;;;;;;5074033;28;20049;-64
2023/06/27 04:54:51;;;;;;;11.27;4.10;;;20.40;64.00;;;;;;5054436;28;20035;-63
2023/06/27 04:57:17;;;;;;;10.90;4.35;;;20.40;64.00;;;;;;5074189;28;20033;-64
2023/06/27 04:59:44;;;;;;;9.15;3.60;;;20.40;64.00;;;;;;5039544;28;20032;-63
2023/06/27 05:02:10;;;;;;;8.90;4.25;;;20.50;64.10;;;;;;5055992;28;20032;-63
2023/06/27 05:04:36;;;;;;;9.82;3.70;;;20.50;64.10;;;;;;5073479;28;20035;-64
2023/06/27 05:07:04;;;;;;;9.32;4.10;;;20.40;64.10;;;;;;5073109;28;20050;-63
2023/06/27 05:09:30;;;;;;;11.15;3.85;;;20.40;64.10;;;;;;5055703;28;20041;-63
2023/06/27 05:11:56;;;;;;;9.82;4.07;;;20.50;64.10;;;;;;5056111;28;20093;-64
2023/06/27 05:14:22;;;;;;;9.23;4.20;;;20.40;64.20;;;;;;5073764;28;20437;-64
2023/06/27 05:16:48;;;;;;;9.15;3.83;;;20.40;64.30;;;;;;5055040;28;20033;-64
2023/06/27 05:19:13;;;;;;;10.50;4.32;;;20.40;64.30;;;;;;5055478;28;20449;-64
2023/06/27 05:21:39;;;;;;;8.80;3.92;;;20.40;64.50;;;;;;5043171;28;20452;-64
2023/06/27 05:24:05;;;;;;;10.38;4.15;;;20.40;64.60;;;;;;5075700;28;20029;-64
2023/06/27 05:26:34;;;;;;;9.05;4.05;;;20.40;64.70;;;;;;5059041;28;20042;-64
2023/06/27 05:29:00;;;;;;;10.70;3.92;;;20.40;64.80;;;;;;5075821;28;20032;-63
2023/06/27 05:31:29;;;;;;;12.65;4.72;;;20.40;64.80;;;;;;5039859;28;20109;-63
2023/06/27 05:33:55;;;;;;;9.30;3.85;;;20.50;64.90;;;;;;5054989;28;20120;-63
2023/06/27 05:36:21;;;;;;;10.93;4.25;;;20.50;65.50;;;;;;5076706;28;20043;-63
2023/06/27 05:38:49;;;;;;;10.90;3.95;;;20.50;64.80;;;;;;5074604;28;20036;-63
2023/06/27 05:41:18;;;;;;;11.45;4.72;;;20.50;64.90;;;;;;5074647;28;20408;-63
2023/06/27 05:43:45;;;;;;;10.50;4.35;;;20.50;65.00;;;;;;5075206;28;20021;-63
2023/06/27 05:46:11;;;;;;;11.38;4.47;;;20.60;64.90;;;;;;5075320;28;20111;-63
2023/06/27 05:48:36;;;;;;;10.07;4.15;;;20.60;65.00;;;;;;5071050;28;20111;-63
2023/06/27 05:51:02;;;;;;;11.40;4.20;;;20.70;65.10;;;;;;5056300;28;20020;-64
2023/06/27 05:53:28;;;;;;;7.15;3.85;;;20.70;65.00;;;;;;5074917;28;20458;-64
2023/06/27 05:55:54;;;;;;;11.38;4.60;;;20.80;65.70;;;;;;5074434;28;20029;-64
2023/06/27 05:58:19;;;;;;;11.05;4.40;;;20.80;65.00;;;;;;5071886;28;20108;-64
2023/06/27 06:00:45;;;;;;;10.13;3.90;;;20.80;64.90;;;;;;5075832;28;20056;-64
2023/06/27 06:03:12;;;;;;;10.27;4.35;;;20.90;65.00;;;;;;5058720;28;20028;-64
2023/06/27 06:05:38;;;;;;;10.70;3.97;;;20.90;65.10;;;;;;5075774;28;20503;-64
2023/06/27 06:08:04;;;;;;;10.18;4.05;;;21.00;65.10;;;;;;5057741;28;20041;-64
2023/06/27 06:10:30;;;;;;;11.32;4.18;;;21.00;65.10;;;;;;5056218;28;20073;-64
2023/06/27 06:12:56;;;;;;;11.45;4.10;;;21.00;65.10;;;;;;5071437;28;20342;-65
2023/06/27 06:15:21;;;;;;;13.07;4.60;;;21.00;65.10;;;;;;5059377;28;20440;-64
2023/06/27 06:17:47;;;;;;;11.23;3.78;;;21.10;65.00;;;;;;5075243;28;20509;-64
2023/06/27 06:20:13;;;;;;;10.07;3.75;;;21.10;65.00;;;;;;5076345;28;20036;-64
2023/06/27 06:22:39;;;;;;;10.18;3.72;;;21.30;65.20;;;;;;5074436;28;20365;-64
2023/06/27 06:25:05;;;;;;;10.90;3.92;;;21.40;64.70;;;;;;5075786;28;20133;-64
2023/06/27 06:27:31;;;;;;;9.68;4.15;;;21.40;64.50;;;;;;5074237;28;20037;-64
2023/06/27 06:29:56;;;;;;;7.78;4.03;;;21.50;64.40;;;;;;5055398;28;20042;-63
2023/06/27 06:32:22;;;;;;;8.98;4.20;;;21.60;64.20;;;;;;5075144;28;20060;-64
2023/06/27 06:34:48;;;;;;;10.60;3.92;;;21.70;64.00;;;;;;5057726;28;20068;-64
2023/06/27 06:37:14;;;;;;;8.50;3.95;;;21.80;63.70;;;;;;5063958;28;20032;-63
2023/06/27 06:39:41;;;;;;;10.38;4.28;;;22.00;63.40;;;;;;5057187;28;20021;-64
2023/06/27 06:42:08;;;;;;;10.65;4.47;;;22.20;63.10;;;;;;5069981;28;20043;-64
2023/06/27 06:44:37;;;;;;;11.02;4.10;;;22.30;62.60;;;;;;5058071;28;20055;-64
2023/06/27 06:47:03;;;;;;;9.40;4.25;;;22.50;62.80;;;;;;5076319;28;20055;-64
2023/06/27 06:49:29;;;;;;;10.60;4.32;;;22.70;61.80;;;;;;5074405;28;20040;-64
2023/06/27 06:51:54;;;;;;;12.25;4.32;;;22.80;61.50;;;;;;5057656;28;20055;-64
2023/06/27 06:54:20;;;;;;;11.25;3.80;;;23.00;61.30;;;;;;5041980;28;20039;-64
2023/06/27 06:56:46;;;;;;;9.80;4.28;;;23.10;60.90;;;;;;5058648;28;20032;-64
2023/06/27 06:59:11;;;;;;;11.40;4.10;;;23.20;60.70;;;;;;5074963;28;20024;-64
2023/06/27 07:01:37;;;;;;;11.88;4.13;;;23.30;60.30;;;;;;5075633;28;20027;-64
2023/06/27 07:04:03;;;;;;;10.15;3.78;;;23.50;60.70;;;;;;5075101;28;20020;-64
2023/06/27 07:06:29;;;;;;;11.75;3.10;;;23.60;59.50;;;;;;5058008;28;20047;-64
2023/06/27 07:08:54;;;;;;;13.07;3.67;;;23.80;59.00;;;;;;5075847;28;20040;-64
2023/06/27 07:11:21;;;;;;;9.57;3.75;;;23.90;58.80;;;;;;5075714;28;20515;-64
2023/06/27 07:13:46;;;;;;;9.73;3.55;;;24.00;58.30;;;;;;5056500;28;20174;-64
2023/06/27 07:16:12;;;;;;;15.35;4.20;;;24.20;58.10;;;;;;5075383;28;20165;-64
2023/06/27 07:18:38;;;;;;;14.73;3.25;;;24.40;57.80;;;;;;5075248;28;20032;-64
2023/06/27 07:21:04;;;;;;;11.27;3.45;;;24.60;57.30;;;;;;5057372;28;20489;-64
2023/06/27 07:23:29;;;;;;;8.43;2.67;;;24.70;56.60;;;;;;5074418;28;20415;-64
2023/06/27 07:25:55;;;;;;;13.07;2.20;;;24.90;56.00;;;;;;5074506;28;20028;-64
2023/06/27 07:28:21;;;;;;;8.63;2.25;;;25.00;55.20;;;;;;5057630;28;20344;-64
2023/06/27 07:30:47;;;;;;;10.27;2.20;;;25.10;54.50;;;;;;5040739;28;20131;-64
2023/06/27 07:33:13;;;;;;;21.70;3.53;;;25.20;54.00;;;;;;5074656;28;20043;-65
2023/06/27 07:35:39;;;;;;;9.05;2.55;;;25.30;53.50;;;;;;5073925;28;20025;-64
2023/06/27 07:38:04;;;;;;;7.53;1.90;;;25.50;52.90;;;;;;5074763;28;20043;-64
2023/06/27 07:40:30;;;;;;;8.43;2.70;;;25.60;52.50;;;;;;5074857;28;20031;-64
2023/06/27 07:42:56;;;;;;;14.05;2.88;;;25.70;51.80;;;;;;5039782;28;20044;-64
2023/06/27 07:45:22;;;;;;;13.85;2.38;;;25.80;51.50;;;;;;5055340;28;20069;-65
2023/06/27 07:47:47;;;;;;;9.23;2.33;;;25.90;51.20;;;;;;5071841;28;20036;-64
2023/06/27 07:50:13;;;;;;;5.30;1.77;;;25.90;51.10;;;;;;5064972;28;20060;-63
2023/06/27 07:52:39;;;;;;;6.18;1.73;;;25.90;51.00;;;;;;5072826;28;20113;-61
2023/06/27 07:55:06;;;;;;;7.55;1.85;;;25.90;50.40;;;;;;5072555;28;20112;-62
2023/06/27 07:57:32;;;;;;;5.22;1.60;;;26.00;49.90;;;;;;5074617;28;20038;-62
2023/06/27 07:59:58;;;;;;;4.82;1.65;;;26.20;49.30;;;;;;5073899;28;20051;-62
2023/06/27 08:02:24;;;;;;;3.50;1.30;;;26.20;48.60;;;;;;5073746;28;20040;-61
2023/06/27 08:04:50;;;;;;;5.50;1.88;;;26.10;48.50;;;;;;5056405;28;20028;-62
2023/06/27 08:07:16;;;;;;;4.90;1.35;;;25.90;48.50;;;;;;5074128;28;20036;-61
2023/06/27 08:09:42;;;;;;;5.40;1.67;;;25.70;48.60;;;;;;5070121;28;20082;-63
2023/06/27 08:12:09;;;;;;;4.40;1.60;;;25.70;48.60;;;;;;5072816;28;20044;-62
2023/06/27 08:14:35;;;;;;;4.15;1.60;;;25.70;48.50;;;;;;5065326;28;20116;-63
2023/06/27 08:17:01;;;;;;;6.45;1.70;;;25.80;48.30;;;;;;5074344;28;20067;-63
2023/06/27 08:19:27;;;;;;;3.92;1.63;;;25.80;48.00;;;;;;5053326;28;20087;-63
2023/06/27 08:21:53;;;;;;;5.47;1.55;;;25.70;48.20;;;;;;5071794;28;20102;-64
2023/06/27 08:24:18;;;;;;;5.82;1.65;;;25.90;47.90;;;;;;5056107;28;20032;-63
2023/06/27 08:26:46;;;;;;;5.25;1.73;;;26.10;47.50;;;;;;5074035;28;20345;-64
2023/06/27 08:29:12;;;;;;;6.90;1.45;;;26.10;47.10;;;;;;5074153;28;20047;-64
2023/06/27 08:31:38;;;;;;;3.75;1.30;;;26.00;47.40;;;;;;5072515;28;20036;-64
2023/06/27 08:34:04;;;;;;;5.72;1.95;;;25.80;47.60;;;;;;5073600;28;20028;-63
2023/06/27 08:36:29;;;;;;;5.85;1.55;;;25.70;47.90;;;;;;5064522;28;20028;-63
2023/06/27 08:38:55;;;;;;;6.40;1.70;;;25.50;48.00;;;;;;5073253;28;20031;-64
2023/06/27 08:41:21;;;;;;;5.55;1.80;;;25.40;48.10;;;;;;5073151;28;20122;-64
2023/06/27 08:43:47;;;;;;;5.78;1.40;;;25.50;48.20;;;;;;5055736;28;20028;-64
2023/06/27 08:46:14;;;;;;;3.92;1.50;;;25.60;48.00;;;;;;5073350;28;20079;-64
2023/06/27 08:48:43;;;;;;;5.55;1.40;;;25.70;47.90;;;;;;5055689;28;20029;-64
2023/06/27 08:51:11;;;;;;;5.78;1.65;;;25.80;47.90;;;;;;5055499;28;20020;-64
2023/06/27 08:53:41;;;;;;;6.72;1.50;;;25.80;47.90;;;;;;5073704;28;20051;-64
2023/06/27 08:56:10;;;;;;;5.32;1.77;;;25.80;47.90;;;;;;5080913;28;20032;-64
2023/06/27 08:58:56;;;;;;;6.28;1.60;;;25.70;47.80;;;;;;5080996;28;20029;-64
2023/06/27 09:01:25;;;;;;;4.82;1.58;;;25.60;47.80;;;;;;5079254;28;20133;-64
2023/06/27 09:03:52;;;;;;;4.80;1.60;;;25.50;47.80;;;;;;5045525;28;20025;-64
2023/06/27 09:06:18;;;;;;;3.92;1.85;;;25.40;47.80;;;;;;5061963;28;20032;-64
2023/06/27 09:08:44;;;;;;;5.80;2.15;;;25.40;47.90;;;;;;5063017;28;20048;-64
2023/06/27 09:11:10;;;;;;;4.97;1.70;;;25.20;47.90;;;;;;5080321;28;20035;-64
2023/06/27 09:13:39;;;;;;;5.75;1.38;;;25.10;48.20;;;;;;5062893;28;20029;-64
2023/06/27 09:16:06;;;;;;;3.17;1.30;;;25.00;48.20;;;;;;5044891;28;20028;-64
2023/06/27 09:18:34;;;;;;;8.77;1.88;;;24.90;47.70;;;;;;5080021;28;20031;-64
2023/06/27 09:21:00;;;;;;;3.65;1.40;;;24.80;47.60;;;;;;5079942;28;20410;-64
2023/06/27 09:23:28;;;;;;;4.43;1.60;;;24.70;47.50;;;;;;5080196;28;20034;-64
2023/06/27 09:26:10;;;;;;;5.85;1.45;;;24.50;47.50;;;;;;5079250;28;20040;-64
2023/06/27 09:28:50;;;;;;;5.15;1.40;;;24.40;47.70;;;;;;5073731;28;20036;-64
2023/06/27 09:31:20;;;;;;;8.95;1.85;;;24.30;47.90;;;;;;5078566;28;20326;-64
2023/06/27 09:33:48;;;;;;;5.40;1.50;;;24.20;47.90;;;;;;5045834;28;20028;-64
2023/06/27 09:36:31;;;;;;;4.75;1.55;;;24.10;47.90;;;;;;5079133;28;20142;-64
2023/06/27 09:39:09;;;;;;;4.55;1.55;;;24.10;47.80;;;;;;5075169;28;20457;-64
2023/06/27 09:41:47;;;;;;;5.00;1.13;;;24.00;47.90;;;;;;5065041;28;20016;-64
2023/06/27 09:44:18;;;;;;;3.40;1.48;;;24.10;48.10;;;;;;5045440;28;20082;-64
2023/06/27 09:46:45;;;;;;;5.07;1.30;;;24.00;48.10;;;;;;5061584;28;20033;-64
2023/06/27 09:49:11;;;;;;;3.13;1.30;;;24.10;47.90;;;;;;5079419;28;20033;-64
2023/06/27 09:51:38;;;;;;;5.03;1.55;;;24.00;47.90;;;;;;5045677;28;20009;-64
2023/06/27 09:54:04;;;;;;;5.15;1.55;;;24.10;47.80;;;;;;5078706;28;20052;-64
2023/06/27 09:56:32;;;;;;;4.55;1.45;;;24.10;47.90;;;;;;5080203;28;20021;-64
2023/06/27 09:59:07;;;;;;;7.20;1.60;;;24.10;47.50;;;;;;5078955;28;20025;-64
2023/06/27 10:01:36;;;;;;;3.92;1.27;;;24.10;47.00;;;;;;5062296;28;20027;-64
2023/06/27 10:04:02;;;;;;;3.55;1.35;;;24.10;47.00;;;;;;5061921;28;20395;-64
2023/06/27 10:06:29;;;;;;;4.82;1.55;;;24.00;46.80;;;;;;5077013;28;20020;-64
2023/06/27 10:08:56;;;;;;;4.63;1.38;;;24.00;46.80;;;;;;5057790;28;20040;-64
2023/06/27 10:11:23;;;;;;;5.45;1.52;;;24.00;46.70;;;;;;5073473;28;20028;-64
2023/06/27 10:13:49;;;;;;;5.82;1.88;;;24.00;46.70;;;;;;5058511;28;20355;-64
2023/06/27 10:16:17;;;;;;;6.35;1.50;;;24.10;46.50;;;;;;5058749;28;20024;-64
2023/06/27 10:18:43;;;;;;;5.07;1.73;;;24.30;46.50;;;;;;5057604;28;20169;-64
2023/06/27 10:21:10;;;;;;;4.88;1.42;;;24.50;45.90;;;;;;5058166;28;20045;-64
2023/06/27 10:23:41;;;;;;;6.82;1.63;;;24.70;45.70;;;;;;5076730;28;20025;-64
2023/06/27 10:26:09;;;;;;;4.85;1.50;;;24.90;46.30;;;;;;5076421;28;20028;-64
2023/06/27 10:28:35;;;;;;;3.65;1.33;;;25.10;45.60;;;;;;5075557;28;20043;-64
2023/06/27 10:31:04;;;;;;;3.53;1.23;;;25.30;45.40;;;;;;5075758;28;20028;-64
2023/06/27 10:33:39;;;;;;;4.85;1.27;;;25.30;45.20;;;;;;5058506;28;20476;-64
2023/06/27 10:36:06;;;;;;;4.63;1.30;;;25.40;45.40;;;;;;5042130;28;20426;-64
2023/06/27 10:38:39;;;;;;;3.80;1.30;;;25.40;45.20;;;;;;5058309;28;20446;-64
2023/06/27 10:41:06;;;;;;;4.18;1.20;;;25.40;44.90;;;;;;5073654;28;20028;-64
2023/06/27 10:43:37;;;;;;;3.60;1.08;;;25.20;44.80;;;;;;5076914;28;20032;-64
2023/06/27 10:46:09;;;;;;;3.47;1.10;;;25.10;45.00;;;;;;5058682;28;20333;-64
2023/06/27 10:48:45;;;;;;;4.13;1.30;;;25.00;45.30;;;;;;5075701;28;20380;-65
2023/06/27 10:51:15;;;;;;;4.18;1.17;;;25.00;45.50;;;;;;5057083;28;20094;-64
2023/06/27 10:53:43;;;;;;;5.20;1.33;;;25.10;45.10;;;;;;5058120;28;20486;-64
2023/06/27 10:56:17;;;;;;;4.80;1.27;;;25.10;45.20;;;;;;5073778;28;20039;-64
2023/06/27 10:58:44;;;;;;;4.35;1.30;;;25.10;45.20;;;;;;5074475;28;20065;-64
2023/06/27 11:01:11;;;;;;;5.20;1.30;;;25.10;45.20;;;;;;5056816;28;20445;-64
2023/06/27 11:03:39;;;;;;;2.90;1.10;;;25.10;45.40;;;;;;5053540;28;20113;-64
2023/06/27 11:06:04;;;;;;;2.50;1.20;;;25.00;45.40;;;;;;5075601;28;20024;-64
2023/06/27 11:08:32;;;;;;;4.20;1.42;;;24.90;45.60;;;;;;5052186;28;20476;-64
2023/06/27 11:11:02;;;;;;;3.05;1.17;;;24.90;45.80;;;;;;5066745;28;20123;-64
2023/06/27 11:13:29;;;;;;;3.20;1.20;;;25.00;45.90;;;;;;5049133;28;20464;-64
2023/06/27 11:15:55;;;;;;;8.60;1.67;;;25.10;45.70;;;;;;5035112;28;20017;-64
2023/06/27 11:18:25;;;;;;;3.45;1.30;;;25.30;45.60;;;;;;5068985;28;20120;-64
2023/06/27 11:20:51;;;;;;;8.40;1.88;;;25.50;45.00;;;;;;5069560;28;20067;-64
2023/06/27 11:23:18;;;;;;;3.75;1.30;;;25.60;44.60;;;;;;5069979;28;20056;-64
2023/06/27 11:25:45;;;;;;;5.68;1.42;;;25.70;44.50;;;;;;5066124;28;20127;-64
2023/06/27 11:28:13;;;;;;;3.55;1.15;;;25.70;44.40;;;;;;5066588;28;20029;-63
2023/06/27 11:30:39;;;;;;;4.18;1.20;;;25.70;44.30;;;;;;5052007;28;20357;-64
2023/06/27 11:33:06;;;;;;;3.60;1.13;;;25.70;43.90;;;;;;5069779;28;20025;-64
2023/06/27 11:35:32;;;;;;;2.95;1.00;;;25.70;43.70;;;;;;5069642;28;20037;-64
2023/06/27 11:37:59;;;;;;;2.65;1.10;;;25.80;43.60;;;;;;5068299;28;20115;-64
2023/06/27 11:40:25;;;;;;;2.33;1.08;;;25.80;43.60;;;;;;5067519;28;20028;-64
2023/06/27 11:42:59;;;;;;;4.97;1.60;;;25.90;43.50;;;;;;5069414;28;20090;-64
2023/06/27 11:45:26;;;;;;;2.67;1.08;;;25.90;43.20;;;;;;5068627;28;20028;-64
2023/06/27 11:47:53;;;;;;;2.83;1.10;;;25.90;43.50;;;;;;5064684;28;20021;-66
2023/06/27 11:50:19;;;;;;;2.33;0.93;;;25.90;43.60;;;;;;5049578;28;20116;-66
2023/06/27 11:52:47;;;;;;;3.20;1.15;;;26.00;43.40;;;;;;5066404;28;21289;-66
2023/06/27 11:55:13;;;;;;;3.15;1.30;;;26.10;43.10;;;;;;5050750;28;20088;-66
2023/06/27 11:57:44;;;;;;;9.82;1.40;;;26.20;42.70;;;;;;5069191;28;20033;-66
2023/06/27 12:00:17;;;;;;;;;;;26.50;42.60;;;;;;5034973;28;20036;-66
2023/06/27 12:02:46;;;;;;;1.98;0.93;;;26.60;42.40;;;;;;5068280;28;19912;-66
2023/06/27 12:05:15;;;;;;;3.28;1.05;;;26.60;42.00;;;;;;5066470;28;20033;-66
2023/06/27 12:07:54;;;;;;;3.53;1.25;;;26.50;41.80;;;;;;5050767;28;20055;-66
2023/06/27 12:10:20;;;;;;;3.10;1.10;;;26.40;41.70;;;;;;5051067;28;20021;-66
2023/06/27 12:12:46;;;;;;;5.00;1.27;;;26.30;41.60;;;;;;5053744;28;20327;-66
2023/06/27 12:15:14;;;;;;;4.65;1.30;;;26.20;41.40;;;;;;5067424;28;20025;-66
2023/06/27 12:18:00;;;;;;;4.03;1.40;;;26.10;41.30;;;;;;5046869;28;20078;-66
2023/06/27 12:20:38;;;;;;;2.15;0.95;;;26.20;41.30;;;;;;5050399;28;20033;-66
2023/06/27 12:23:04;;;;;;;2.70;1.02;;;26.20;41.20;;;;;;5067787;28;20032;-66
2023/06/27 12:25:30;;;;;;;5.50;1.55;;;26.30;41.20;;;;;;5050473;28;20036;-66
2023/06/27 12:27:55;;;;;;;3.38;1.42;;;26.20;41.10;;;;;;5033319;28;20032;-66
2023/06/27 12:30:21;;;;;;;4.10;1.10;;;26.10;41.30;;;;;;5031830;28;20041;-66
2023/06/27 12:32:47;;;;;;;4.28;1.27;;;26.10;41.40;;;;;;5047282;28;20078;-66
2023/06/27 12:35:17;;;;;;;3.30;1.20;;;26.10;41.30;;;;;;5065162;28;20109;-65
2023/06/27 12:37:44;;;;;;;3.80;1.27;;;26.10;41.10;;;;;;5027991;28;20024;-66
2023/06/27 12:40:17;;;;;;;3.83;1.20;;;26.20;41.30;;;;;;5045941;28;20054;-66
2023/06/27 12:42:44;;;;;;;4.68;1.23;;;26.30;41.60;;;;;;5033088;28;20032;-66
2023/06/27 12:45:13;;;;;;;3.55;1.15;;;26.30;41.70;;;;;;5050346;28;20028;-66
2023/06/27 12:47:43;;;;;;;3.70;1.10;;;26.30;41.90;;;;;;5051559;28;20025;-66